createdAt,value
2018-09-08T00:03:49.625Z,3.33
2018-09-08T00:08:47.136Z,2.50
2018-09-08T00:13:45.198Z,2.33
2018-09-08T00:18:48.223Z,2.90
2018-09-08T00:23:51.543Z,3.00
2018-09-08T00:28:55.318Z,3.03
2018-09-08T00:33:52.694Z,2.90
2018-09-08T00:38:50.060Z,2.40
2018-09-08T00:43:47.792Z,3.00
2018-09-08T00:48:45.207Z,3.63
2018-09-08T00:53:42.614Z,3.60
2018-09-08T00:58:44.547Z,3.53
2018-09-08T01:03:42.782Z,2.90
2018-09-08T01:08:40.264Z,2.83
2018-09-08T01:13:37.638Z,3.40
2018-09-08T01:18:37.007Z,3.40
2018-09-08T01:23:34.393Z,3.40
2018-09-08T01:28:32.272Z,2.40
2018-09-08T01:33:29.756Z,2.93
2018-09-08T01:38:27.176Z,2.80
2018-09-08T01:43:24.579Z,3.17
2018-09-08T01:48:22.122Z,4.13
2018-09-08T01:53:19.534Z,3.37
2018-09-08T01:58:16.895Z,3.10
2018-09-08T02:03:14.368Z,2.83
2018-09-08T02:08:11.858Z,2.60
2018-09-08T02:13:09.410Z,2.67
2018-09-08T02:18:06.824Z,3.20
2018-09-08T02:23:04.235Z,2.77
2018-09-08T02:28:01.759Z,3.20
2018-09-08T02:32:59.677Z,3.10
2018-09-08T02:37:57.642Z,3.20
2018-09-08T02:42:55.031Z,3.27
2018-09-08T02:47:52.439Z,3.20
2018-09-08T02:52:48.732Z,3.00
2018-09-08T02:57:45.051Z,3.30
2018-09-08T03:02:41.451Z,3.70
2018-09-08T03:07:37.795Z,3.70
2018-09-08T03:12:34.790Z,3.80
2018-09-08T03:17:31.095Z,3.40
2018-09-08T03:22:27.395Z,3.60
2018-09-08T03:27:23.684Z,3.40
2018-09-08T03:32:20.008Z,3.53
2018-09-08T03:37:16.330Z,3.47
2018-09-08T03:42:13.183Z,4.10
2018-09-08T03:47:09.547Z,4.47
2018-09-08T03:52:05.832Z,3.77
2018-09-08T03:57:02.151Z,3.60
2018-09-08T04:01:58.447Z,3.77
2018-09-08T04:06:55.841Z,3.47
2018-09-08T04:11:53.299Z,3.80
2018-09-08T04:16:50.711Z,3.73
2018-09-08T04:21:48.115Z,4.30
2018-09-08T04:26:45.611Z,3.93
2018-09-08T04:31:43.067Z,4.00
2018-09-08T04:36:40.481Z,4.03
2018-09-08T04:41:37.941Z,4.50
2018-09-08T04:46:35.331Z,4.40
2018-09-08T04:51:32.781Z,4.37
2018-09-08T04:56:30.239Z,4.20
2018-09-08T05:01:30.876Z,4.67
2018-09-08T05:06:28.452Z,4.00
2018-09-08T05:11:25.847Z,4.27
2018-09-08T05:16:23.244Z,3.97
2018-09-08T05:21:20.678Z,3.90
2018-09-08T05:26:18.088Z,3.20
2018-09-08T05:31:15.507Z,3.53
2018-09-08T05:36:12.970Z,3.30
2018-09-08T05:41:10.435Z,3.30
2018-09-08T05:46:07.951Z,3.37
2018-09-08T05:51:05.371Z,3.37
2018-09-08T05:56:02.789Z,2.93
2018-09-08T06:01:00.219Z,3.20
2018-09-08T06:05:57.627Z,3.00
2018-09-08T06:10:55.034Z,3.17
2018-09-08T06:15:52.443Z,3.67
2018-09-08T06:20:49.831Z,3.20
2018-09-08T06:25:47.236Z,3.47
2018-09-08T06:30:44.625Z,3.73
2018-09-08T06:35:43.068Z,3.80
2018-09-08T06:40:40.464Z,3.83
2018-09-08T06:45:37.906Z,3.43
2018-09-08T06:50:35.392Z,3.93
2018-09-08T06:55:32.847Z,4.90
2018-09-08T07:00:30.242Z,4.10
2018-09-08T07:05:27.664Z,4.90
2018-09-08T07:10:25.555Z,4.30
2018-09-08T07:15:22.975Z,4.83
2018-09-08T07:20:20.483Z,4.50
2018-09-08T07:25:17.941Z,4.97
2018-09-08T07:30:15.384Z,4.90
2018-09-08T07:35:13.107Z,4.40
2018-09-08T07:40:11.573Z,4.00
2018-09-08T07:45:08.971Z,4.00
2018-09-08T07:50:06.443Z,5.30
2018-09-08T07:55:03.934Z,5.17
2018-09-08T08:00:01.409Z,3.70
2018-09-08T08:04:58.879Z,4.30
2018-09-08T08:09:57.728Z,5.10
2018-09-08T08:14:55.173Z,4.73
2018-09-08T08:19:52.619Z,4.77
2018-09-08T08:24:50.045Z,4.90
2018-09-08T08:29:47.470Z,4.70
2018-09-08T08:34:44.900Z,3.43
2018-09-08T08:39:50.629Z,3.70
2018-09-08T08:44:48.082Z,3.77
2018-09-08T08:49:52.962Z,3.57
2018-09-08T08:54:54.646Z,4.30
2018-09-08T08:59:52.123Z,5.53
2018-09-08T09:04:49.531Z,3.13
2018-09-08T09:09:54.603Z,2.97
2018-09-08T09:14:52.643Z,4.50
2018-09-08T09:20:01.443Z,3.77
2018-09-08T09:25:08.317Z,2.70
2018-09-08T09:30:06.773Z,3.80
2018-09-08T09:35:04.447Z,3.10
2018-09-08T09:40:02.927Z,3.27
2018-09-08T09:45:00.356Z,1.73
2018-09-08T09:49:57.782Z,2.80
2018-09-08T09:54:56.009Z,2.57
2018-09-08T09:59:53.456Z,2.47
2018-09-08T10:04:50.882Z,2.97
2018-09-08T10:09:55.042Z,2.70
2018-09-08T10:14:52.460Z,2.20
2018-09-08T10:19:49.929Z,2.07
2018-09-08T10:24:47.364Z,2.30
2018-09-08T10:29:44.788Z,1.67
2018-09-08T10:34:43.153Z,2.10
2018-09-08T10:39:47.946Z,1.83
2018-09-08T10:44:46.902Z,1.60
2018-09-08T10:49:44.439Z,1.73
2018-09-08T10:54:41.879Z,2.20
2018-09-08T10:59:39.283Z,2.10
2018-09-08T11:04:36.711Z,1.93
2018-09-08T11:09:43.907Z,2.47
2018-09-08T11:14:41.373Z,2.47
2018-09-08T11:19:38.783Z,2.20
2018-09-08T11:24:36.191Z,1.33
2018-09-08T11:29:33.639Z,2.30
2018-09-08T11:34:31.323Z,1.30
2018-09-08T11:39:35.779Z,1.93
2018-09-08T11:44:35.378Z,1.50
2018-09-08T11:49:32.824Z,1.10
2018-09-08T11:54:30.219Z,1.80
2018-09-08T11:59:27.685Z,2.07
2018-09-08T12:04:25.083Z,2.20
2018-09-08T12:14:40.907Z,1.90
2018-09-08T12:19:38.325Z,1.47
2018-09-08T12:24:35.744Z,1.60
2018-09-08T12:29:33.160Z,1.50
2018-09-08T12:34:30.602Z,1.53
2018-09-08T12:39:37.156Z,2.10
2018-09-08T12:44:34.644Z,1.53
2018-09-08T12:49:32.099Z,1.97
2018-09-08T12:54:29.554Z,2.40
2018-09-08T12:59:27.234Z,1.70
2018-09-08T13:04:24.634Z,2.13
2018-09-08T13:09:33.116Z,1.30
2018-09-08T13:14:30.930Z,1.70
2018-09-08T13:19:28.330Z,1.30
2018-09-08T13:24:25.729Z,1.47
2018-09-08T13:29:23.381Z,1.83
2018-09-08T13:34:20.783Z,2.03
2018-09-08T13:39:31.527Z,1.43
2018-09-08T13:44:29.988Z,1.90
2018-09-08T13:49:27.620Z,2.30
2018-09-08T13:54:25.527Z,1.53
2018-09-08T13:59:22.978Z,1.53
2018-09-08T14:04:20.482Z,1.80
2018-09-08T14:09:23.540Z,2.23
2018-09-08T14:14:21.126Z,2.07
2018-09-08T14:19:18.534Z,2.00
2018-09-08T14:24:15.967Z,2.00
2018-09-08T14:29:13.423Z,1.90
2018-09-08T14:34:10.920Z,1.17
2018-09-08T14:39:11.959Z,1.70
2018-09-08T14:44:09.399Z,2.00
2018-09-08T14:49:06.811Z,2.10
2018-09-08T14:54:04.304Z,2.50
2018-09-08T14:59:01.779Z,1.80
2018-09-08T15:03:59.189Z,1.93
2018-09-08T15:08:57.419Z,2.10
2018-09-08T15:13:54.854Z,1.43
2018-09-08T15:18:52.283Z,1.70
2018-09-08T15:23:51.353Z,1.90
2018-09-08T15:28:48.776Z,2.07
2018-09-08T15:33:46.191Z,1.87
2018-09-08T15:38:43.587Z,2.10
2018-09-08T15:43:41.025Z,1.70
2018-09-08T15:48:38.464Z,1.90
2018-09-08T15:53:35.900Z,2.30
2018-09-08T15:58:33.434Z,1.60
2018-09-08T16:03:30.731Z,1.97
2018-09-08T16:08:28.194Z,2.23
2018-09-08T16:13:25.614Z,1.90
2018-09-08T16:18:23.039Z,1.73
2018-09-08T16:23:20.475Z,2.00
2018-09-08T16:28:17.893Z,2.20
2018-09-08T16:33:15.283Z,1.80
2018-09-08T16:38:12.679Z,2.13
2018-09-08T16:43:10.094Z,2.00
2018-09-08T16:48:07.522Z,2.03
2018-09-08T16:53:05.564Z,1.70
2018-09-08T16:58:03.125Z,2.03
2018-09-08T17:03:01.426Z,2.00
2018-09-08T17:07:58.885Z,1.80
2018-09-08T17:12:56.310Z,1.77
2018-09-08T17:17:53.820Z,1.87
2018-09-08T17:22:51.335Z,1.80
2018-09-08T17:27:48.739Z,2.20
2018-09-08T17:32:46.150Z,1.93
2018-09-08T17:37:43.550Z,1.63
2018-09-08T17:42:40.971Z,2.00
2018-09-08T17:47:38.391Z,2.40
2018-09-08T17:52:35.871Z,1.80
2018-09-08T17:57:33.449Z,1.80
2018-09-08T18:02:30.863Z,1.77
2018-09-08T18:07:28.271Z,2.47
2018-09-08T18:12:25.716Z,2.47
2018-09-08T18:17:23.199Z,1.97
2018-09-08T18:22:21.299Z,2.23
2018-09-08T18:27:18.776Z,2.20
2018-09-08T18:32:16.237Z,1.90
2018-09-08T18:37:13.822Z,2.27
2018-09-08T18:42:11.479Z,2.40
2018-09-08T18:47:08.921Z,2.13
2018-09-08T18:52:06.432Z,2.37
2018-09-08T18:57:03.908Z,1.93
2018-09-08T19:02:01.321Z,1.97
2018-09-08T19:06:58.742Z,2.17
2018-09-08T19:11:56.178Z,2.10
2018-09-08T19:16:53.599Z,1.97
2018-09-08T19:21:51.237Z,2.20
2018-09-08T19:26:48.665Z,2.50
2018-09-08T19:31:46.134Z,3.00
2018-09-08T19:36:43.774Z,2.23
2018-09-08T19:41:41.221Z,2.17
2018-09-08T19:46:44.155Z,2.27
2018-09-08T19:51:41.564Z,2.43
2018-09-08T19:56:45.199Z,4.70
2018-09-08T20:01:42.602Z,2.17
2018-09-08T20:06:40.006Z,2.43
2018-09-08T20:11:37.436Z,2.50
2018-09-08T20:16:35.852Z,2.50
2018-09-08T20:21:33.255Z,2.60
2018-09-08T20:26:30.719Z,3.00
2018-09-08T20:31:28.074Z,2.63
2018-09-08T20:36:25.491Z,2.83
2018-09-08T20:41:22.864Z,2.47
2018-09-08T20:46:21.115Z,2.13
2018-09-08T20:51:18.521Z,2.90
2018-09-08T20:56:15.910Z,2.50
2018-09-08T21:01:13.327Z,2.97
2018-09-08T21:06:10.738Z,3.23
2018-09-08T21:11:08.115Z,3.10
2018-09-08T21:16:05.542Z,3.03
2018-09-08T21:21:02.924Z,2.80
2018-09-08T21:26:00.578Z,3.07
2018-09-08T21:30:57.948Z,2.70
2018-09-08T21:35:55.582Z,3.60
2018-09-08T21:40:52.994Z,3.67
2018-09-08T21:45:50.387Z,3.30
2018-09-08T21:50:47.771Z,4.13
2018-09-08T21:55:45.171Z,4.30
2018-09-08T22:00:47.204Z,3.97
2018-09-08T22:05:44.596Z,3.60
2018-09-08T22:10:42.033Z,3.70
2018-09-08T22:15:39.432Z,3.90
2018-09-08T22:20:36.847Z,3.63
2018-09-08T22:25:34.235Z,4.80
2018-09-08T22:30:31.619Z,4.40
2018-09-08T22:35:29.004Z,3.87
2018-09-08T22:40:26.513Z,4.10
2018-09-08T22:45:23.919Z,4.43
2018-09-08T22:50:21.344Z,4.00
2018-09-08T22:55:18.822Z,3.30
2018-09-08T23:00:16.675Z,4.23
2018-09-08T23:05:14.191Z,3.90
2018-09-08T23:10:12.725Z,4.10
2018-09-08T23:15:10.179Z,4.80
2018-09-08T23:20:07.611Z,4.57
2018-09-08T23:25:05.022Z,5.07
2018-09-08T23:30:02.495Z,5.57
2018-09-08T23:34:59.938Z,5.00
2018-09-08T23:39:58.681Z,5.13
2018-09-08T23:44:56.072Z,3.60
2018-09-08T23:49:53.579Z,4.77
2018-09-08T23:54:50.975Z,4.40
2018-09-08T23:59:48.799Z,5.00
